Flight Track Log - Related Links

Times and Time Zones

All times are in EDT time to prevent confusion due to time zone crossing. See the SWA59 flight status page for this flight to view local times or setup timezone preferences in your user account.

Time Position Orientation Groundspeed Altitude Reporting Facility
EDT Latitude Longitude Course Direction KTS MPH feet Rate Location/Type
Fri 10:09:41 PM 32.8833 -96.8833 301° West 205 236 3,600  Level Dallas / Fort Worth TRACON
Fri 10:11:27 PM 32.8744 -96.9756 263° West 246 283 10,300 3,542 Climbing Fort Worth Center
Fri 10:12:27 PM 32.7825 -96.9883 187° South 230 265 13,400 3,400 Climbing Fort Worth Center
Fri 10:13:27 PM 32.6803 -96.9742 173° South 309 356 17,100 3,750 Climbing Fort Worth Center
Fri 10:14:27 PM 32.5653 -96.9575 173° South 400 460 20,900 3,550 Climbing Fort Worth Center
Fri 10:15:27 PM 32.4506 -96.9408 173° South 422 486 24,200 3,050 Climbing Fort Worth Center
Fri 10:16:27 PM 32.3292 -96.9217 172° South 434 499 27,000 2,800 Climbing Fort Worth Center
Fri 10:17:27 PM 32.2186 -96.9025 172° South 445 512 29,800 2,750 Climbing Fort Worth Center
Fri 10:18:27 PM 32.0911 -96.8836 173° South 452 520 32,500 1,600 Climbing Fort Worth Center
Fri 10:19:27 PM 31.9617 -96.8672 174° South 464 534 33,000 146 Climbing Fort Worth Center
Fri 10:21:52 PM 31.6436 -96.8211 173° South 484 557 33,000  Level Houston Center
Fri 10:22:53 PM 31.5089 -96.8017 173° South 480 552 33,000  Level Houston Center
Fri 10:23:54 PM 31.3769 -96.7553 163° South 491 565 33,000  Level Houston Center
Fri 10:24:55 PM 31.2489 -96.6942 158° South 491 565 33,000 -984 Level Houston Center
Fri 10:25:56 PM 31.1192 -96.6328 158° South 493 567 31,000 -2,459 Descending Houston Center
Fri 10:26:57 PM 30.9900 -96.5714 158° South 494 568 28,000 -2,732 Descending Houston Center
Fri 10:27:59 PM 30.8633 -96.5114 158° South 486 559 25,400 -2,537 Descending Houston Center
Fri 10:29:00 PM 30.7417 -96.4550 158° South 471 542 22,800 -2,508 Descending Houston Center
Fri 10:30:01 PM 30.6264 -96.4019 158° South 448 516 20,300 -2,526 Descending Houston Center
Fri 10:30:35 PM 30.5528 -96.3678 158° South 429 494 18,800 -2,262 Descending Houston Center
Fri 10:31:02 PM 30.5167 -96.3503 157° South 429 494 18,000 -2,459 Descending Houston Center
Fri 10:31:36 PM 30.4372 -96.3153 159° South 409 471 16,300 -1,967 Descending Houston Center
Fri 10:32:03 PM 30.4094 -96.3008 156° South 414 476 16,000 -2,328 Descending Houston Center
Fri 10:32:43 PM 30.3239 -96.2625 159° South 396 456 13,700 -3,246 Descending Houston Center
Fri 10:33:04 PM 30.2886 -96.2450 157° South 397 457 12,700 -2,291 Descending Houston Center
Fri 10:33:38 PM 30.2364 -96.2217 159° South 384 442 11,600 -1,869 Descending Houston Center
Fri 10:34:05 PM 30.1894 -96.1989 157° South 384 442 10,800 -1,343 Descending Houston Center
Fri 10:34:45 PM 30.1267 -96.1664 156° South 367 422 10,100 -885 Descending Houston Center
Fri 10:35:06 PM 30.1097 -96.1558 152° Southeast 370 426 9,900  Descending Houston Center
Fri 10:35:46 PM 30.0436 -96.1008 144° Southeast 365 420 10,100  Climbing Houston Center
Fri 10:36:07 PM 30.0325 -96.0814 123° Southeast 370 426 9,900  Descending Houston Center
Fri 10:36:40 PM 29.9939 -96.0100 122° Southeast 363 418 10,100 98 Climbing Houston Center
Fri 10:37:08 PM 29.9678 -95.9672 125° Southeast 367 422 10,000  Descending Houston Center
Fri 10:37:35 PM 29.9419 -95.9197 122° Southeast 367 422 10,100 -98 Climbing Houston Center
Fri 10:38:09 PM 29.9111 -95.8694 125° Southeast 367 422 9,900  Descending Houston Center
Fri 10:38:42 PM 29.8803 -95.8158 124° Southeast 366 421 10,100  Climbing Houston Center
Fri 10:39:10 PM 29.8561 -95.7722 123° Southeast 364 419 9,900 -492 Descending Houston Center
Fri 10:39:43 PM 29.8233 -95.7167 124° Southeast 339 390 9,600 -885 Descending Houston Center
Fri 10:40:11 PM 29.8039 -95.6822 123° Southeast 341 392 9,000 -1,377 Descending Houston Center
Fri 10:40:44 PM 29.7733 -95.6286 123° Southeast 318 366 8,200 -1,377 Descending Houston Center
Fri 10:41:12 PM 29.7553 -95.5978 124° Southeast 320 368 7,600 -1,300 Descending Houston Center
Fri 10:41:44 PM 29.7261 -95.5475 124° Southeast 308 354 6,900 -1,377 Descending Houston Center
Fri 10:42:13 PM 29.7086 -95.5175 124° Southeast 306 352 6,200 -885 Descending Houston Center
Fri 10:42:45 PM 29.6814 -95.4711 124° Southeast 286 329 6,000 -295 Descending Houston Center
Fri 10:43:14 PM 29.6664 -95.4447 123° Southeast 283 326 5,900 98 Descending Houston Center
Fri 10:43:46 PM 29.6417 -95.4036 125° Southeast 250 288 6,100  Climbing Houston Center
Fri 10:44:15 PM 29.6261 -95.3794 127° Southeast 255 293 5,900  Descending Houston Center
Fri 10:44:47 PM 29.5917 -95.3400 135° Southeast 252 290 6,100  Climbing Houston Center
Fri 10:45:16 PM 29.5767 -95.3233 136° Southeast 252 290 5,900 -984 Descending Houston Center
Fri 10:45:48 PM 29.5425 -95.2836 135° Southeast 250 288 5,100 -1,475 Descending Houston Center
Fri 10:46:17 PM 29.5178 -95.2572 137° Southeast 251 289 4,400 -1,500 Descending Houston Center
Fri 10:46:48 PM 29.4933 -95.2294 135° Southeast 236 272 3,600 -2,066 Descending Houston Center
Fri 10:47:18 PM 29.4886 -95.1994 100° East 233 268 2,300 -1,475 Descending Houston Center
Fri 10:47:49 PM 29.5119 -95.1817 34° Northeast 177 204 2,100 -295 Descending Houston Center
Fri 10:48:19 PM 29.5269 -95.1708 32° Northeast 192 221 2,000 98 Descending Houston Center
Fri 10:48:50 PM 29.5478 -95.1819 335° Northwest 145 167 2,200 -98 Climbing Houston Center
Fri 10:49:20 PM 29.5603 -95.1950 318° Northwest 167 192 1,900 -492 Descending Houston Center
Fri 10:49:51 PM 29.5800 -95.2117 324° Northwest 153 176 1,700 -689 Descending Houston Center
Fri 10:50:21 PM 29.5939 -95.2225 326° Northwest 156 180 1,200 -689 Descending Houston Center
Fri 10:50:52 PM 29.6072 -95.2347 321° Northwest 117 135 1,000 -590 Descending Houston Center
Fri 10:51:22 PM 29.6197 -95.2475 318° Northwest 138 159 600 -700 Descending Houston Center
Fri 10:51:52 PM 29.6311 -95.2656 306° West 126 145 300 -600 Descending Houston Center

Login

Don't have an account? Register now (free) for customized features, flight alerts, and more!